Facebook Twitter

Wetterstation Reutte

Messwerte
  Temperatur Wetter Niederschlag Luftdruck Wind
Mi, 23:00 Uhr -2° - 0 mm 1015.2 hPa 0 km/h
Mi, 22:00 Uhr -1° - 0 mm 1015.2 hPa 0 km/h
Mi, 21:00 Uhr -1° - 0 mm 1015.1 hPa 0 km/h
Mi, 20:00 Uhr -3° - 0 mm 1015.8 hPa 0 km/h
Mi, 19:00 Uhr -2° - 0 mm 1015.4 hPa 0 km/h
Mi, 18:00 Uhr -2° - 0 mm 1015.9 hPa 0 km/h
Mi, 17:00 Uhr -1° - 0 mm 1015.5 hPa 0 km/h
Mi, 16:00 Uhr 2° - 0 mm 1014.8 hPa 0 km/h
Mi, 15:00 Uhr 3° - 0 mm 1014.6 hPa 0 km/h
Mi, 14:00 Uhr 3° - 0 mm 1015 hPa 0 km/h
Mi, 13:00 Uhr 1° - - 1016.8 hPa 0 km/h
Mi, 12:00 Uhr 1° - 0 mm 1017.3 hPa 0 km/h
Mi, 11:00 Uhr -2° - 0 mm 1019.2 hPa 0 km/h
Mi, 10:00 Uhr -3° - 0 mm 1020.3 hPa 0 km/h
Mi, 09:00 Uhr -7° - 0 mm 1022.3 hPa 0 km/h
Mi, 08:00 Uhr -9° - 0 mm 1023.1 hPa 0 km/h
Mi, 07:00 Uhr -8° - 0 mm 1023.4 hPa 0 km/h
Mi, 06:00 Uhr -9° - 0 mm 1023.6 hPa 0 km/h
Mi, 05:00 Uhr -8° - 0 mm 1023.8 hPa 0 km/h
Mi, 02:00 Uhr -8° - 0 mm 1025.6 hPa 0 km/h

Alle Zeitangaben MEZ